WLF2328 LEPA-EFHK
Flight info
| Callsign | WLF2328 |
|---|---|
| Flight time | N/A |
| Altitude | 32000 |
| Route | MEROS DCT LAPIT DCT CHELY DCT LUMAS DCT MAXIR DCT LUSOL DCT BODRU DCT OKTET DCT IRMAR/N0461F360 DCT KINES DCT VANAS DCT ESOKO DCT GODRA/N0462F350 DCT LOKTA DCT TIKNI N746 KENIG DCT MAG DCT BANUB/N0466F370 Z131 GOSOT DCT NEBSI/N0465F380 DCT ALAMI/N0464F370 DCT OKEVU DCT EVADI Y370 DIVAM |
| Aircraft | B738/M-SDE2E3FGHIRWXY/LB1 |
Departure
| Time | N/A |
|---|---|
| Airport | Palma de Mallorca Airport (LEPA) |
Arrival
| Time | 2026-04-20 01:56 |
|---|---|
| Airport | Helsinki Vantaa Airport (EFHK) |
| Time | Latitude | Longitude | Altitude | Speed | Heading |
|---|---|---|---|---|---|
| 2026-04-20 00:28 | 53.20980 | 12.98382 | 35981 ft | 463 kts | 31° |
| 2026-04-20 00:29 | 53.26482 | 13.03953 | 35983 ft | 463 kts | 31° |
| 2026-04-20 00:29 | 53.31982 | 13.09544 | 35979 ft | 462 kts | 31° |
| 2026-04-20 00:30 | 53.37427 | 13.15095 | 35976 ft | 461 kts | 31° |
| 2026-04-20 00:30 | 53.42902 | 13.20695 | 35978 ft | 461 kts | 31° |
| 2026-04-20 00:31 | 53.48362 | 13.26302 | 35978 ft | 460 kts | 31° |
| 2026-04-20 00:31 | 53.53829 | 13.31929 | 35983 ft | 460 kts | 31° |
| 2026-04-20 00:32 | 53.59279 | 13.37557 | 35981 ft | 460 kts | 31° |
| 2026-04-20 00:32 | 53.64719 | 13.43190 | 35984 ft | 459 kts | 31° |
| 2026-04-20 00:33 | 53.70172 | 13.48856 | 35989 ft | 460 kts | 31° |
| 2026-04-20 00:33 | 53.75610 | 13.54521 | 35986 ft | 459 kts | 31° |
| 2026-04-20 00:34 | 53.81038 | 13.60192 | 35998 ft | 459 kts | 31° |
| 2026-04-20 00:34 | 53.86460 | 13.65878 | 35992 ft | 459 kts | 31° |
| 2026-04-20 00:35 | 53.91882 | 13.71581 | 36003 ft | 458 kts | 31° |
| 2026-04-20 00:35 | 53.97309 | 13.77305 | 36012 ft | 458 kts | 31° |
| 2026-04-20 00:36 | 54.02711 | 13.83021 | 35997 ft | 458 kts | 31° |
| 2026-04-20 00:36 | 54.08082 | 13.88718 | 36016 ft | 458 kts | 31° |
| 2026-04-20 00:37 | 54.13482 | 13.94470 | 36016 ft | 458 kts | 32° |
| 2026-04-20 00:37 | 54.18888 | 14.00245 | 36028 ft | 459 kts | 32° |
| 2026-04-20 00:38 | 54.24305 | 14.06049 | 36032 ft | 459 kts | 32° |
| 2026-04-20 00:38 | 54.29712 | 14.11860 | 36038 ft | 460 kts | 32° |
| 2026-04-20 00:39 | 54.35131 | 14.17704 | 36040 ft | 460 kts | 32° |
| 2026-04-20 00:39 | 54.40542 | 14.23557 | 36033 ft | 460 kts | 32° |
| 2026-04-20 00:40 | 54.45937 | 14.29462 | 36047 ft | 460 kts | 35° |
| 2026-04-20 00:40 | 54.50743 | 14.36665 | 36048 ft | 459 kts | 44° |
| 2026-04-20 00:41 | 54.55326 | 14.44319 | 36052 ft | 458 kts | 44° |
| 2026-04-20 00:41 | 54.59927 | 14.51914 | 36063 ft | 458 kts | 43° |
| 2026-04-20 00:42 | 54.64558 | 14.59474 | 36052 ft | 457 kts | 43° |
| 2026-04-20 00:42 | 54.69164 | 14.66994 | 36073 ft | 454 kts | 43° |
| 2026-04-20 00:43 | 54.73741 | 14.74500 | 36075 ft | 453 kts | 44° |
| 2026-04-20 00:43 | 54.78301 | 14.82002 | 36071 ft | 451 kts | 43° |
| 2026-04-20 00:44 | 54.82988 | 14.89184 | 36077 ft | 449 kts | 37° |
| 2026-04-20 00:44 | 54.88016 | 14.95632 | 36101 ft | 448 kts | 36° |
| 2026-04-20 00:45 | 54.93025 | 15.01936 | 36084 ft | 448 kts | 36° |
| 2026-04-20 00:45 | 54.98050 | 15.08364 | 36094 ft | 447 kts | 36° |
| 2026-04-20 00:46 | 55.03038 | 15.14838 | 36101 ft | 447 kts | 37° |
| 2026-04-20 00:46 | 55.08022 | 15.21349 | 36115 ft | 448 kts | 37° |
| 2026-04-20 00:47 | 55.13014 | 15.27894 | 36102 ft | 449 kts | 37° |
| 2026-04-20 00:47 | 55.18009 | 15.34463 | 36117 ft | 449 kts | 37° |
| 2026-04-20 00:48 | 55.23009 | 15.41057 | 36118 ft | 450 kts | 37° |
| 2026-04-20 00:48 | 55.28000 | 15.47662 | 36115 ft | 450 kts | 37° |
| 2026-04-20 00:49 | 55.32987 | 15.54283 | 36113 ft | 450 kts | 37° |
| 2026-04-20 00:49 | 55.37978 | 15.60929 | 36118 ft | 450 kts | 37° |
| 2026-04-20 00:50 | 55.42958 | 15.67580 | 36132 ft | 450 kts | 37° |
| 2026-04-20 00:50 | 55.47940 | 15.74259 | 36122 ft | 449 kts | 37° |
| 2026-04-20 00:51 | 55.52906 | 15.80933 | 36146 ft | 448 kts | 36° |
| 2026-04-20 00:51 | 55.57856 | 15.87614 | 36139 ft | 448 kts | 37° |
| 2026-04-20 00:52 | 55.62794 | 15.94296 | 36148 ft | 447 kts | 37° |
| 2026-04-20 00:52 | 55.67725 | 16.01001 | 36155 ft | 446 kts | 36° |
| 2026-04-20 00:53 | 55.72641 | 16.07700 | 36165 ft | 445 kts | 37° |
| 2026-04-20 00:53 | 55.77557 | 16.14418 | 36163 ft | 445 kts | 37° |
| 2026-04-20 00:54 | 55.82461 | 16.21140 | 36177 ft | 445 kts | 36° |
| 2026-04-20 00:54 | 55.87363 | 16.27880 | 36185 ft | 446 kts | 37° |
| 2026-04-20 00:55 | 55.92277 | 16.34663 | 36181 ft | 446 kts | 36° |
| 2026-04-20 00:55 | 55.97152 | 16.41411 | 36183 ft | 447 kts | 37° |
| 2026-04-20 00:56 | 56.02099 | 16.48289 | 36184 ft | 447 kts | 37° |
| 2026-04-20 00:56 | 56.06956 | 16.55061 | 36194 ft | 446 kts | 37° |
| 2026-04-20 00:57 | 56.11831 | 16.61878 | 36187 ft | 444 kts | 37° |
| 2026-04-20 00:57 | 56.16686 | 16.68688 | 36196 ft | 443 kts | 37° |
| 2026-04-20 00:58 | 56.21535 | 16.75516 | 36201 ft | 442 kts | 37° |
| 2026-04-20 00:58 | 56.26371 | 16.82347 | 36210 ft | 442 kts | 37° |
| 2026-04-20 00:59 | 56.31199 | 16.89191 | 36214 ft | 442 kts | 38° |
| 2026-04-20 00:59 | 56.36026 | 16.96054 | 36222 ft | 441 kts | 37° |
| 2026-04-20 01:00 | 56.40842 | 17.02931 | 36228 ft | 441 kts | 38° |
| 2026-04-20 01:00 | 56.44848 | 17.08670 | 36235 ft | 442 kts | 37° |
| 2026-04-20 01:01 | 56.49651 | 17.15557 | 36232 ft | 442 kts | 38° |
| 2026-04-20 01:01 | 56.54471 | 17.22493 | 36235 ft | 442 kts | 38° |
| 2026-04-20 01:02 | 56.59286 | 17.29446 | 36232 ft | 442 kts | 38° |
| 2026-04-20 01:02 | 56.64088 | 17.36410 | 36233 ft | 442 kts | 38° |
| 2026-04-20 01:03 | 56.68897 | 17.43408 | 36234 ft | 442 kts | 38° |
| 2026-04-20 01:03 | 56.73696 | 17.50410 | 36256 ft | 442 kts | 38° |
| 2026-04-20 01:04 | 56.78494 | 17.57437 | 36250 ft | 442 kts | 38° |
| 2026-04-20 01:04 | 56.83283 | 17.64476 | 36274 ft | 442 kts | 39° |
| 2026-04-20 01:05 | 56.88083 | 17.71554 | 36275 ft | 443 kts | 39° |
| 2026-04-20 01:05 | 56.92877 | 17.78647 | 36284 ft | 443 kts | 39° |
| 2026-04-20 01:06 | 56.97668 | 17.85759 | 36275 ft | 443 kts | 39° |
| 2026-04-20 01:06 | 57.02462 | 17.92899 | 36279 ft | 444 kts | 39° |
| 2026-04-20 01:07 | 57.07252 | 18.00060 | 36280 ft | 445 kts | 39° |
| 2026-04-20 01:07 | 57.12021 | 18.07214 | 36280 ft | 445 kts | 39° |
| 2026-04-20 01:08 | 57.16819 | 18.14437 | 36285 ft | 446 kts | 40° |
| 2026-04-20 01:08 | 57.21621 | 18.21690 | 36296 ft | 446 kts | 40° |
| 2026-04-20 01:09 | 57.26429 | 18.28976 | 36295 ft | 447 kts | 40° |
| 2026-04-20 01:09 | 57.31237 | 18.36287 | 36296 ft | 448 kts | 40° |
| 2026-04-20 01:10 | 57.36044 | 18.43624 | 36304 ft | 448 kts | 40° |
| 2026-04-20 01:10 | 57.43260 | 18.54687 | 36308 ft | 449 kts | 40° |
| 2026-04-20 01:11 | 57.48054 | 18.62069 | 36304 ft | 448 kts | 40° |
| 2026-04-20 01:11 | 57.52855 | 18.69485 | 36308 ft | 448 kts | 40° |
| 2026-04-20 01:12 | 57.57636 | 18.76898 | 36303 ft | 448 kts | 40° |
| 2026-04-20 01:12 | 57.62428 | 18.84354 | 36312 ft | 448 kts | 40° |
| 2026-04-20 01:13 | 57.67197 | 18.91803 | 36316 ft | 447 kts | 40° |
| 2026-04-20 01:13 | 57.71951 | 18.99255 | 36314 ft | 446 kts | 40° |
| 2026-04-20 01:14 | 57.76692 | 19.06711 | 36315 ft | 445 kts | 40° |
| 2026-04-20 01:14 | 57.81429 | 19.14188 | 36319 ft | 444 kts | 40° |
| 2026-04-20 01:15 | 57.86116 | 19.21609 | 36320 ft | 444 kts | 40° |
| 2026-04-20 01:15 | 57.90822 | 19.29087 | 36328 ft | 443 kts | 40° |
| 2026-04-20 01:16 | 57.95512 | 19.36572 | 36327 ft | 442 kts | 40° |
| 2026-04-20 01:16 | 58.00190 | 19.44063 | 36334 ft | 441 kts | 40° |
| 2026-04-20 01:17 | 58.04865 | 19.51573 | 36330 ft | 441 kts | 40° |
| 2026-04-20 01:17 | 58.09524 | 19.59087 | 36329 ft | 440 kts | 40° |
| 2026-04-20 01:18 | 58.14174 | 19.66611 | 36332 ft | 440 kts | 40° |
| 2026-04-20 01:18 | 58.18829 | 19.74168 | 36336 ft | 440 kts | 40° |
| 2026-04-20 01:19 | 58.23468 | 19.81728 | 36339 ft | 440 kts | 40° |
| 2026-04-20 01:19 | 58.28101 | 19.89307 | 36342 ft | 439 kts | 40° |
| 2026-04-20 01:20 | 58.32734 | 19.96915 | 36337 ft | 439 kts | 40° |
| 2026-04-20 01:20 | 58.37353 | 20.04523 | 36340 ft | 439 kts | 40° |
| 2026-04-20 01:21 | 58.41964 | 20.12144 | 36339 ft | 439 kts | 41° |
| 2026-04-20 01:21 | 58.46579 | 20.19801 | 36345 ft | 439 kts | 41° |
| 2026-04-20 01:22 | 58.51179 | 20.27461 | 36347 ft | 439 kts | 41° |
| 2026-04-20 01:22 | 58.55775 | 20.35160 | 36348 ft | 439 kts | 41° |
| 2026-04-20 01:23 | 58.60355 | 20.42859 | 36353 ft | 438 kts | 41° |
| 2026-04-20 01:23 | 58.64938 | 20.50593 | 36368 ft | 438 kts | 41° |
| 2026-04-20 01:24 | 58.69507 | 20.58332 | 36361 ft | 438 kts | 41° |
| 2026-04-20 01:24 | 58.74024 | 20.66012 | 36394 ft | 436 kts | 41° |
| 2026-04-20 01:25 | 58.78619 | 20.73852 | 36360 ft | 444 kts | 41° |
| 2026-04-20 01:25 | 58.83239 | 20.81760 | 36336 ft | 443 kts | 41° |
| 2026-04-20 01:26 | 58.87838 | 20.89669 | 36341 ft | 442 kts | 41° |
| 2026-04-20 01:26 | 58.92420 | 20.97575 | 36343 ft | 441 kts | 42° |
| 2026-04-20 01:27 | 58.96992 | 21.05491 | 36341 ft | 440 kts | 42° |
| 2026-04-20 01:27 | 59.01548 | 21.13410 | 36337 ft | 440 kts | 42° |
| 2026-04-20 01:28 | 59.06103 | 21.21354 | 36336 ft | 438 kts | 42° |
| 2026-04-20 01:28 | 59.10629 | 21.29285 | 36344 ft | 438 kts | 42° |
| 2026-04-20 01:29 | 59.15150 | 21.37233 | 36345 ft | 438 kts | 42° |
| 2026-04-20 01:29 | 59.19665 | 21.45195 | 36347 ft | 438 kts | 43° |
| 2026-04-20 01:30 | 59.24027 | 21.53478 | 36346 ft | 438 kts | 51° |
| 2026-04-20 01:30 | 59.27285 | 21.63436 | 36351 ft | 440 kts | 59° |
| 2026-04-20 01:31 | 59.30409 | 21.73900 | 36356 ft | 445 kts | 59° |
| 2026-04-20 01:31 | 59.33566 | 21.84277 | 36364 ft | 447 kts | 58° |
| 2026-04-20 01:32 | 59.36750 | 21.94740 | 36354 ft | 447 kts | 59° |
| 2026-04-20 01:32 | 59.39925 | 22.05227 | 36027 ft | 450 kts | 59° |
| 2026-04-20 01:33 | 59.41516 | 22.10498 | 35464 ft | 445 kts | 59° |
| 2026-04-20 01:33 | 59.43081 | 22.15695 | 34821 ft | 440 kts | 59° |
| 2026-04-20 01:33 | 59.44634 | 22.20867 | 34106 ft | 438 kts | 59° |
| 2026-04-20 01:33 | 59.46170 | 22.25994 | 33477 ft | 433 kts | 59° |
| 2026-04-20 01:34 | 59.47694 | 22.31088 | 32779 ft | 430 kts | 59° |
| 2026-04-20 01:34 | 59.49199 | 22.36130 | 32046 ft | 427 kts | 60° |
| 2026-04-20 01:34 | 59.50694 | 22.41151 | 31334 ft | 424 kts | 60° |
| 2026-04-20 01:34 | 59.52176 | 22.46143 | 30841 ft | 418 kts | 60° |
| 2026-04-20 01:35 | 59.53651 | 22.51132 | 30119 ft | 427 kts | 60° |
| 2026-04-20 01:35 | 59.55146 | 22.56204 | 29271 ft | 430 kts | 60° |
| 2026-04-20 01:35 | 59.56649 | 22.61313 | 28386 ft | 432 kts | 60° |
| 2026-04-20 01:35 | 59.58157 | 22.66451 | 27470 ft | 433 kts | 60° |
| 2026-04-20 01:36 | 59.59666 | 22.71604 | 26568 ft | 435 kts | 60° |
| 2026-04-20 01:36 | 59.61169 | 22.76744 | 25961 ft | 429 kts | 60° |
| 2026-04-20 01:36 | 59.62658 | 22.81848 | 25260 ft | 427 kts | 60° |
| 2026-04-20 01:36 | 59.64131 | 22.86910 | 24588 ft | 424 kts | 61° |
| 2026-04-20 01:37 | 59.65593 | 22.91942 | 23932 ft | 421 kts | 61° |
| 2026-04-20 01:37 | 59.67038 | 22.96932 | 23185 ft | 417 kts | 61° |
| 2026-04-20 01:37 | 59.68472 | 23.01888 | 22522 ft | 412 kts | 61° |
| 2026-04-20 01:37 | 59.69883 | 23.06791 | 21896 ft | 407 kts | 61° |
| 2026-04-20 01:38 | 59.71276 | 23.11654 | 21255 ft | 403 kts | 61° |
| 2026-04-20 01:38 | 59.72649 | 23.16460 | 20604 ft | 400 kts | 61° |
| 2026-04-20 01:38 | 59.74014 | 23.21245 | 19968 ft | 398 kts | 61° |
| 2026-04-20 01:38 | 59.75366 | 23.25996 | 19318 ft | 395 kts | 61° |
| 2026-04-20 01:39 | 59.76715 | 23.30741 | 18680 ft | 392 kts | 61° |
| 2026-04-20 01:39 | 59.78045 | 23.35431 | 17985 ft | 389 kts | 61° |
| 2026-04-20 01:39 | 59.79363 | 23.40087 | 17337 ft | 384 kts | 61° |
| 2026-04-20 01:39 | 59.80663 | 23.44692 | 16726 ft | 380 kts | 60° |
| 2026-04-20 01:40 | 59.81934 | 23.49194 | 16098 ft | 376 kts | 60° |
| 2026-04-20 01:40 | 59.83189 | 23.53656 | 15960 ft | 367 kts | 60° |
| 2026-04-20 01:40 | 59.84448 | 23.58135 | 15775 ft | 373 kts | 60° |
| 2026-04-20 01:40 | 59.85722 | 23.62662 | 15567 ft | 375 kts | 60° |
| 2026-04-20 01:41 | 59.86988 | 23.67137 | 15392 ft | 370 kts | 60° |
| 2026-04-20 01:41 | 59.88226 | 23.71512 | 15225 ft | 355 kts | 60° |
| 2026-04-20 01:41 | 59.89409 | 23.75699 | 15093 ft | 340 kts | 60° |
| 2026-04-20 01:41 | 59.90541 | 23.79718 | 14958 ft | 325 kts | 60° |
| 2026-04-20 01:42 | 59.91625 | 23.83592 | 14723 ft | 316 kts | 60° |
| 2026-04-20 01:42 | 59.92648 | 23.87404 | 14422 ft | 309 kts | 61° |
| 2026-04-20 01:42 | 59.93645 | 23.91191 | 14064 ft | 306 kts | 62° |
| 2026-04-20 01:42 | 59.94625 | 23.94927 | 13699 ft | 303 kts | 61° |
| 2026-04-20 01:43 | 59.95595 | 23.98632 | 13361 ft | 300 kts | 61° |
| 2026-04-20 01:43 | 59.96556 | 24.02303 | 13035 ft | 297 kts | 61° |
| 2026-04-20 01:43 | 59.97509 | 24.05941 | 12718 ft | 295 kts | 61° |
| 2026-04-20 01:43 | 59.98460 | 24.09571 | 12375 ft | 295 kts | 61° |
| 2026-04-20 01:44 | 59.99410 | 24.13206 | 12047 ft | 295 kts | 61° |
| 2026-04-20 01:44 | 60.00360 | 24.16843 | 11701 ft | 296 kts | 62° |
| 2026-04-20 01:44 | 60.01300 | 24.20446 | 11367 ft | 285 kts | 61° |
| 2026-04-20 01:44 | 60.02193 | 24.23880 | 11050 ft | 273 kts | 61° |
| 2026-04-20 01:45 | 60.03052 | 24.27185 | 10743 ft | 262 kts | 62° |
| 2026-04-20 01:45 | 60.03876 | 24.30361 | 10526 ft | 253 kts | 61° |
| 2026-04-20 01:45 | 60.04682 | 24.33469 | 10439 ft | 254 kts | 61° |
| 2026-04-20 01:45 | 60.05510 | 24.36660 | 10238 ft | 263 kts | 61° |
| 2026-04-20 01:46 | 60.06358 | 24.39936 | 9924 ft | 266 kts | 62° |
| 2026-04-20 01:46 | 60.07197 | 24.43181 | 9618 ft | 266 kts | 62° |
| 2026-04-20 01:46 | 60.08051 | 24.46497 | 9321 ft | 262 kts | 62° |
| 2026-04-20 01:46 | 60.08871 | 24.49686 | 9034 ft | 259 kts | 62° |
| 2026-04-20 01:47 | 60.09422 | 24.51827 | 8849 ft | 257 kts | 62° |
| 2026-04-20 01:47 | 60.10139 | 24.55079 | 8548 ft | 257 kts | 73° |
| 2026-04-20 01:47 | 60.10490 | 24.58567 | 8398 ft | 250 kts | 77° |
| 2026-04-20 01:47 | 60.10788 | 24.61904 | 8258 ft | 235 kts | 77° |
| 2026-04-20 01:48 | 60.11177 | 24.66095 | 7527 ft | 231 kts | 77° |
| 2026-04-20 01:48 | 60.11480 | 24.69260 | 6965 ft | 229 kts | 77° |
| 2026-04-20 01:48 | 60.11675 | 24.71282 | 6871 ft | 215 kts | 77° |
| 2026-04-20 01:48 | 60.11951 | 24.74120 | 6652 ft | 199 kts | 76° |
| 2026-04-20 01:49 | 60.12215 | 24.76801 | 6182 ft | 195 kts | 76° |
| 2026-04-20 01:49 | 60.12478 | 24.79456 | 5635 ft | 194 kts | 77° |
| 2026-04-20 01:49 | 60.12742 | 24.82114 | 5085 ft | 194 kts | 77° |
| 2026-04-20 01:49 | 60.13004 | 24.84745 | 4590 ft | 189 kts | 77° |
| 2026-04-20 01:50 | 60.13257 | 24.87300 | 4382 ft | 189 kts | 77° |
| 2026-04-20 01:50 | 60.13517 | 24.89918 | 4157 ft | 194 kts | 77° |
| 2026-04-20 01:50 | 60.13782 | 24.92583 | 3927 ft | 195 kts | 77° |
| 2026-04-20 01:50 | 60.14042 | 24.95205 | 3821 ft | 189 kts | 77° |
| 2026-04-20 01:51 | 60.14294 | 24.97761 | 3727 ft | 188 kts | 77° |
| 2026-04-20 01:51 | 60.14560 | 25.00406 | 3650 ft | 193 kts | 77° |
| 2026-04-20 01:51 | 60.14815 | 25.03017 | 3568 ft | 193 kts | 78° |
| 2026-04-20 01:51 | 60.15071 | 25.05646 | 3450 ft | 189 kts | 78° |
| 2026-04-20 01:52 | 60.15317 | 25.08168 | 3330 ft | 180 kts | 78° |
| 2026-04-20 01:52 | 60.15713 | 25.10473 | 3163 ft | 173 kts | 52° |
| 2026-04-20 01:52 | 60.16696 | 25.11780 | 3021 ft | 175 kts | 18° |
| 2026-04-20 01:52 | 60.17922 | 25.11753 | 2821 ft | 185 kts | 342° |
| 2026-04-20 01:53 | 60.19081 | 25.10608 | 2638 ft | 185 kts | 337° |
| 2026-04-20 01:53 | 60.20240 | 25.09460 | 2417 ft | 185 kts | 337° |
| 2026-04-20 01:53 | 60.21392 | 25.08306 | 2169 ft | 183 kts | 336° |
| 2026-04-20 01:53 | 60.22497 | 25.07188 | 1962 ft | 169 kts | 337° |
| 2026-04-20 01:54 | 60.23492 | 25.06179 | 1812 ft | 155 kts | 338° |
| 2026-04-20 01:54 | 60.24458 | 25.05236 | 1623 ft | 154 kts | 338° |
| 2026-04-20 01:54 | 60.25416 | 25.04254 | 1405 ft | 155 kts | 337° |
| 2026-04-20 01:54 | 60.26364 | 25.03277 | 1248 ft | 152 kts | 337° |
| 2026-04-20 01:55 | 60.27303 | 25.02314 | 1063 ft | 152 kts | 338° |
| 2026-04-20 01:55 | 60.28245 | 25.01345 | 853 ft | 152 kts | 336° |
| 2026-04-20 01:55 | 60.29196 | 25.00375 | 644 ft | 151 kts | 335° |
| 2026-04-20 01:55 | 60.30122 | 24.99425 | 362 ft | 147 kts | 334° |
| 2026-04-20 01:56 | 60.31034 | 24.98488 | 167 ft | 144 kts | 335° |
| 2026-04-20 01:56 | 60.31807 | 24.97703 | 151 ft | 96 kts | 333° |
| 2026-04-20 01:56 | 60.32212 | 24.97285 | 155 ft | 35 kts | 330° |
| 2026-04-20 01:56 | 60.32375 | 24.97076 | 162 ft | 21 kts | 305° |
| 2026-04-20 01:57 | 60.32359 | 24.96914 | 163 ft | 6 kts | 233° |
| 2026-04-20 01:57 | 60.32349 | 24.96888 | 164 ft | 0 kts | 232° |
| 2026-04-20 01:57 | 60.32347 | 24.96884 | 164 ft | 2 kts | 232° |
| 2026-04-20 01:57 | 60.32320 | 24.96853 | 164 ft | 8 kts | 189° |
| 2026-04-20 01:58 | 60.32245 | 24.96916 | 163 ft | 13 kts | 153° |
| 2026-04-20 01:58 | 60.32164 | 24.96997 | 165 ft | 11 kts | 154° |
| 2026-04-20 01:58 | 60.32096 | 24.97065 | 165 ft | 11 kts | 152° |
| 2026-04-20 01:58 | 60.32084 | 24.97078 | 165 ft | 0 kts | 152° |
| 2026-04-20 01:59 | 60.32081 | 24.97080 | 165 ft | 2 kts | 152° |
| 2026-04-20 01:59 | 60.32052 | 24.97111 | 165 ft | 8 kts | 152° |
| 2026-04-20 01:59 | 60.31981 | 24.97188 | 164 ft | 9 kts | 151° |
| 2026-04-20 01:59 | 60.31928 | 24.97151 | 164 ft | 5 kts | 261° |
| 2026-04-20 02:00 | 60.31933 | 24.97106 | 165 ft | 4 kts | 292° |
| 2026-04-20 02:00 | 60.31960 | 24.97056 | 165 ft | 8 kts | 326° |
| 2026-04-20 02:00 | 60.31960 | 24.96982 | 165 ft | 7 kts | 243° |
| 2026-04-20 02:00 | 60.31946 | 24.96928 | 165 ft | 3 kts | 242° |
| 2026-04-20 02:01 | 60.31946 | 24.96927 | 165 ft | 0 kts | 242° |